Time;durP1;ratioP1;P1;durP2;ratioP2;P2;SDS_P1;SDS_P2;PMS_P1;PMS_P2;Temp;Humidity;BMP_temperature;BMP_pressure;BME280_temperature;BME280_humidity;BME280_pressure;Samples;Min_cycle;Max_cycle;Signal;HPM_P1;HPM_P2
2022/10/01 00:02:09;;;;;;;3.97;3.50;;;12.40;73.60;;;;;;5037012;28;20442;-67
2022/10/01 00:04:36;;;;;;;4.10;3.50;;;12.30;73.50;;;;;;5041086;28;20417;-67
2022/10/01 00:07:08;;;;;;;4.10;3.70;;;12.30;74.00;;;;;;5032510;28;20959;-67
2022/10/01 00:09:36;;;;;;;3.63;3.33;;;12.30;74.10;;;;;;5024307;28;20497;-67
2022/10/01 00:12:03;;;;;;;3.63;3.33;;;12.30;74.20;;;;;;5029447;28;20439;-67
2022/10/01 00:14:30;;;;;;;4.30;3.90;;;12.30;74.70;;;;;;5032765;28;20435;-68
2022/10/01 00:16:57;;;;;;;3.70;3.40;;;12.20;74.70;;;;;;5028984;28;20445;-66
2022/10/01 00:19:23;;;;;;;3.70;3.40;;;12.20;74.80;;;;;;5037021;28;20421;-68
2022/10/01 00:21:50;;;;;;;3.65;3.35;;;12.30;75.70;;;;;;5031977;28;20440;-69
2022/10/01 00:24:17;;;;;;;3.70;3.40;;;12.20;75.20;;;;;;5037389;28;20424;-67
2022/10/01 00:26:46;;;;;;;4.00;3.70;;;12.20;75.30;;;;;;5027964;28;20438;-68
2022/10/01 00:29:14;;;;;;;3.80;3.50;;;12.20;75.90;;;;;;5033828;28;20487;-65
2022/10/01 00:31:41;;;;;;;4.35;3.80;;;12.20;76.20;;;;;;5040086;28;20426;-67
2022/10/01 00:34:11;;;;;;;3.90;3.50;;;12.20;77.70;;;;;;5033757;28;20803;-67
2022/10/01 00:36:38;;;;;;;4.90;4.43;;;12.10;80.30;;;;;;5033379;28;20430;-68
2022/10/01 00:39:04;;;;;;;4.70;4.40;;;12.10;81.20;;;;;;5034287;28;20435;-68
2022/10/01 00:41:33;;;;;;;5.70;5.20;;;12.10;81.80;;;;;;5041450;28;20425;-68
2022/10/01 00:44:04;;;;;;;5.10;4.60;;;12.00;84.60;;;;;;5038657;28;20426;-67
2022/10/01 00:46:38;;;;;;;6.68;6.07;;;12.00;85.40;;;;;;5027978;28;20434;-68
2022/10/01 00:49:08;;;;;;;7.22;6.63;;;12.00;88.90;;;;;;5042815;28;20429;-68
2022/10/01 00:51:40;;;;;;;6.97;6.47;;;11.90;88.70;;;;;;5036215;28;20434;-67
2022/10/01 00:54:10;;;;;;;6.63;6.10;;;11.80;90.30;;;;;;5039268;28;20522;-68
2022/10/01 00:56:38;;;;;;;7.72;7.10;;;11.70;90.60;;;;;;5030463;28;20435;-69
2022/10/01 00:59:07;;;;;;;8.10;7.30;;;11.60;91.10;;;;;;5037349;28;20868;-68
2022/10/01 01:01:37;;;;;;;7.70;6.90;;;11.50;92.30;;;;;;5033379;28;20442;-68
2022/10/01 01:04:15;;;;;;;8.10;7.50;;;11.50;92.30;;;;;;5032010;28;20439;-70
2022/10/01 01:06:42;;;;;;;8.00;7.30;;;11.40;92.50;;;;;;5034881;28;20437;-68
2022/10/01 01:09:09;;;;;;;8.48;7.78;;;11.30;92.90;;;;;;5029829;28;20430;-69
2022/10/01 01:11:45;;;;;;;7.80;7.20;;;11.20;93.60;;;;;;5035454;28;20437;-70
2022/10/01 01:14:19;;;;;;;8.70;8.10;;;11.10;93.70;;;;;;5031880;28;20441;-70
2022/10/01 01:16:50;;;;;;;8.52;7.72;;;11.20;94.40;;;;;;5025541;28;20435;-69
2022/10/01 01:19:34;;;;;;;8.20;7.60;;;11.10;94.60;;;;;;5028508;28;20433;-70
2022/10/01 01:22:04;;;;;;;8.20;7.60;;;11.10;94.40;;;;;;5038463;28;20927;-69
2022/10/01 01:24:49;;;;;;;8.80;8.10;;;11.00;94.70;;;;;;5033286;28;20439;-70
2022/10/01 01:27:27;;;;;;;8.38;7.68;;;11.00;94.70;;;;;;5027739;28;20447;-70
2022/10/01 01:30:03;;;;;;;9.27;8.43;;;11.00;94.90;;;;;;5038305;28;20468;-70
2022/10/01 01:32:34;;;;;;;9.80;9.00;;;11.00;95.20;;;;;;5026319;28;20434;-69
2022/10/01 01:35:04;;;;;;;9.07;8.48;;;11.00;95.30;;;;;;5031097;28;20919;-68
2022/10/01 01:37:37;;;;;;;8.95;8.15;;;10.90;95.60;;;;;;5037624;28;20443;-69
2022/10/01 01:40:10;;;;;;;8.47;7.77;;;10.90;95.90;;;;;;5030118;28;20451;-69
2022/10/01 01:42:41;;;;;;;8.32;7.53;;;10.90;96.20;;;;;;5034897;28;20782;-68
2022/10/01 01:45:13;;;;;;;8.30;7.60;;;10.90;95.70;;;;;;5028500;28;20500;-68
2022/10/01 01:47:42;;;;;;;8.40;7.90;;;10.90;95.80;;;;;;5035352;28;20429;-70
2022/10/01 01:50:11;;;;;;;7.30;6.70;;;10.90;96.10;;;;;;5041646;28;20432;-69
2022/10/01 01:52:38;;;;;;;7.20;6.70;;;10.90;96.10;;;;;;5032935;28;20801;-70
2022/10/01 01:55:07;;;;;;;6.50;6.00;;;10.90;95.50;;;;;;5033215;28;20423;-70
2022/10/01 01:57:37;;;;;;;8.15;7.45;;;10.80;95.70;;;;;;5029564;28;20810;-70
2022/10/01 02:00:05;;;;;;;7.30;6.70;;;10.80;96.10;;;;;;5036220;28;20492;-68
2022/10/01 02:02:36;;;;;;;7.10;6.50;;;10.80;96.10;;;;;;5037803;28;20568;-71
2022/10/01 02:05:07;;;;;;;7.40;6.80;;;10.80;95.80;;;;;;5035517;28;20437;-67
2022/10/01 02:08:25;;;;;;;7.82;7.03;;;10.80;95.90;;;;;;5030831;28;20435;-68
2022/10/01 02:11:09;;;;;;;7.35;6.80;;;10.80;96.10;;;;;;5024887;28;20536;-69
2022/10/01 02:13:46;;;;;;;6.68;6.07;;;10.80;96.30;;;;;;5033932;28;20435;-70
2022/10/01 02:16:21;;;;;;;7.65;6.05;;;10.80;96.10;;;;;;5034011;28;20419;-70
2022/10/01 02:18:56;;;;;;;6.78;6.18;;;10.80;96.10;;;;;;5036114;28;20428;-71
2022/10/01 02:21:30;;;;;;;6.70;6.20;;;10.80;96.00;;;;;;5038489;28;20472;-71
2022/10/01 02:24:01;;;;;;;6.90;6.32;;;10.80;96.00;;;;;;5027293;28;20431;-69
2022/10/01 02:26:30;;;;;;;7.37;6.33;;;10.80;96.10;;;;;;5027969;28;20518;-70
2022/10/01 02:29:02;;;;;;;6.60;6.20;;;10.80;96.30;;;;;;5028556;28;20427;-70
2022/10/01 02:31:31;;;;;;;7.75;7.10;;;10.70;96.20;;;;;;5039388;28;20425;-71
2022/10/01 02:34:01;;;;;;;6.40;5.80;;;10.80;96.60;;;;;;5029903;28;20449;-67
2022/10/01 02:36:30;;;;;;;7.00;6.50;;;10.80;96.30;;;;;;5032129;28;20468;-68
2022/10/01 02:39:00;;;;;;;7.25;6.65;;;10.80;96.40;;;;;;5040339;28;20427;-69
2022/10/01 02:41:33;;;;;;;6.60;6.10;;;10.70;96.40;;;;;;5039679;28;20455;-70
2022/10/01 02:44:04;;;;;;;6.80;6.30;;;10.80;96.60;;;;;;5031670;28;20430;-69
2022/10/01 02:46:36;;;;;;;6.50;5.90;;;10.80;96.80;;;;;;5036770;28;20555;-71
2022/10/01 02:49:04;;;;;;;7.07;6.57;;;10.80;96.90;;;;;;5033822;28;20496;-69
2022/10/01 02:51:38;;;;;;;7.28;6.78;;;10.80;96.40;;;;;;5025526;28;20426;-71
2022/10/01 02:54:10;;;;;;;7.40;6.90;;;10.70;96.60;;;;;;5037572;28;20430;-70
2022/10/01 02:59:23;;;;;;;7.70;7.10;;;10.70;97.10;;;;;;5036480;28;20491;-69
2022/10/01 03:01:50;;;;;;;7.50;6.80;;;10.80;97.10;;;;;;5032861;28;20426;-69
2022/10/01 03:04:18;;;;;;;6.90;6.20;;;10.80;97.30;;;;;;5035712;28;20421;-70
2022/10/01 03:06:45;;;;;;;6.70;6.10;;;10.80;97.30;;;;;;5026277;28;20431;-70
2022/10/01 03:09:12;;;;;;;7.70;7.00;;;10.80;97.20;;;;;;5029997;28;20508;-70
2022/10/01 03:11:39;;;;;;;7.15;6.60;;;10.70;97.40;;;;;;5036830;28;20433;-70
2022/10/01 03:14:06;;;;;;;6.35;5.85;;;10.70;97.40;;;;;;5030357;28;20434;-70
2022/10/01 03:16:33;;;;;;;6.50;6.00;;;10.70;97.60;;;;;;5034315;28;20438;-70
2022/10/01 03:19:00;;;;;;;6.55;6.05;;;10.70;97.50;;;;;;5038403;28;20442;-70
2022/10/01 03:21:28;;;;;;;7.00;6.50;;;10.70;97.70;;;;;;5037752;28;20947;-71
2022/10/01 03:23:55;;;;;;;7.90;7.30;;;10.70;97.80;;;;;;5037913;28;20465;-71
2022/10/01 03:26:21;;;;;;;7.00;6.50;;;10.70;98.00;;;;;;5032109;28;20441;-71
2022/10/01 03:28:48;;;;;;;7.00;6.50;;;10.70;98.10;;;;;;5034746;28;20434;-71
2022/10/01 03:31:15;;;;;;;6.70;6.10;;;10.60;98.20;;;;;;5038885;28;20916;-70
2022/10/01 03:33:42;;;;;;;6.60;6.10;;;10.60;98.30;;;;;;5041531;28;20432;-70
2022/10/01 03:36:08;;;;;;;6.30;5.80;;;10.60;98.60;;;;;;5036936;28;20521;-70
2022/10/01 03:38:36;;;;;;;6.70;6.10;;;10.60;98.40;;;;;;5035165;28;20422;-70
2022/10/01 03:41:03;;;;;;;6.50;5.90;;;10.70;98.50;;;;;;5036766;28;20426;-71
2022/10/01 03:43:30;;;;;;;6.97;6.37;;;10.60;98.60;;;;;;5039258;28;20528;-70
2022/10/01 03:45:56;;;;;;;7.77;7.17;;;10.60;98.70;;;;;;5040225;28;20425;-70
2022/10/01 03:48:24;;;;;;;7.18;6.68;;;10.60;98.90;;;;;;5032347;28;20438;-71
2022/10/01 03:50:54;;;;;;;6.82;6.18;;;10.60;98.90;;;;;;5032978;28;20957;-70
2022/10/01 03:53:21;;;;;;;6.68;6.18;;;10.60;99.00;;;;;;5034708;28;20436;-70
2022/10/01 03:55:50;;;;;;;6.00;5.60;;;10.60;99.10;;;;;;5035206;28;20984;-70
2022/10/01 03:58:17;;;;;;;5.68;5.18;;;10.60;99.20;;;;;;5034915;28;20434;-71
2022/10/01 04:00:45;;;;;;;6.18;5.68;;;10.60;99.20;;;;;;5038325;28;20477;-71
2022/10/01 04:03:12;;;;;;;5.10;4.70;;;10.60;99.20;;;;;;5031400;28;20516;-70
2022/10/01 04:05:39;;;;;;;5.35;4.85;;;10.60;99.20;;;;;;5044472;28;20456;-70
2022/10/01 04:08:06;;;;;;;4.10;3.80;;;10.60;99.40;;;;;;5031455;28;20465;-70
2022/10/01 04:10:32;;;;;;;3.90;3.60;;;10.70;99.40;;;;;;5037322;28;20432;-71
2022/10/01 04:13:01;;;;;;;3.00;2.80;;;10.70;99.30;;;;;;5034688;28;20439;-71
2022/10/01 04:15:27;;;;;;;3.60;3.20;;;10.70;99.00;;;;;;5040426;28;20429;-71
2022/10/01 04:17:54;;;;;;;2.85;2.55;;;10.70;99.00;;;;;;5031560;28;20434;-70
2022/10/01 04:20:21;;;;;;;2.97;2.55;;;10.80;98.90;;;;;;5029754;28;20434;-70
2022/10/01 04:22:48;;;;;;;2.60;1.70;;;10.80;98.60;;;;;;5037385;28;20427;-71
2022/10/01 04:25:15;;;;;;;2.10;1.50;;;10.80;98.40;;;;;;5038552;28;20426;-70
2022/10/01 04:27:53;;;;;;;1.80;1.70;;;10.80;98.20;;;;;;5042651;28;20440;-72
2022/10/01 04:30:22;;;;;;;1.80;1.70;;;10.80;98.40;;;;;;5027167;28;20831;-70
2022/10/01 04:32:48;;;;;;;1.42;1.13;;;10.80;98.40;;;;;;5029201;28;20430;-69
2022/10/01 04:35:15;;;;;;;1.50;1.20;;;10.80;98.40;;;;;;5041137;28;20913;-72
2022/10/01 04:37:42;;;;;;;1.90;1.20;;;10.80;98.40;;;;;;5036592;28;20920;-69
2022/10/01 04:40:09;;;;;;;1.27;1.10;;;10.90;98.40;;;;;;5038748;28;20819;-68
2022/10/01 04:42:39;;;;;;;1.60;1.10;;;10.90;98.50;;;;;;5037288;28;20481;-68
2022/10/01 04:45:07;;;;;;;1.40;1.02;;;10.90;98.00;;;;;;5032900;28;20426;-71
2022/10/01 04:47:35;;;;;;;1.30;0.80;;;10.90;98.00;;;;;;5039407;28;20877;-69
2022/10/01 04:50:02;;;;;;;1.10;0.75;;;11.00;97.90;;;;;;5034890;28;20906;-69
2022/10/01 04:52:28;;;;;;;0.90;0.60;;;11.00;97.80;;;;;;5035441;28;20430;-67
2022/10/01 04:54:55;;;;;;;0.95;0.60;;;11.00;97.90;;;;;;5034934;28;20497;-68
2022/10/01 04:57:22;;;;;;;1.10;0.70;;;11.00;97.50;;;;;;5044647;28;20429;-69
2022/10/01 04:59:49;;;;;;;1.10;0.60;;;11.00;97.50;;;;;;5032711;28;20427;-70
2022/10/01 05:02:17;;;;;;;1.20;0.50;;;11.00;97.40;;;;;;5036893;28;20426;-69
2022/10/01 05:04:45;;;;;;;1.73;0.60;;;11.00;97.10;;;;;;5033700;28;20466;-68
2022/10/01 05:07:11;;;;;;;1.80;0.70;;;11.10;97.10;;;;;;5033793;28;20576;-69
2022/10/01 05:09:38;;;;;;;0.80;0.60;;;11.10;96.80;;;;;;5026366;28;20466;-68
2022/10/01 05:12:06;;;;;;;1.30;0.60;;;11.10;96.70;;;;;;5025622;28;20439;-67
2022/10/01 05:14:34;;;;;;;1.30;0.50;;;11.10;96.80;;;;;;5023264;28;20447;-69
2022/10/01 05:17:00;;;;;;;0.80;0.50;;;11.10;96.80;;;;;;5037226;28;20500;-69
2022/10/01 05:19:29;;;;;;;1.10;0.50;;;11.10;96.90;;;;;;5029496;28;20445;-67
2022/10/01 05:21:57;;;;;;;1.58;0.60;;;11.10;96.90;;;;;;5030200;28;20803;-67
2022/10/01 05:24:24;;;;;;;0.77;0.50;;;11.10;97.00;;;;;;5032183;28;20435;-67
2022/10/01 05:26:52;;;;;;;0.70;0.50;;;11.10;96.90;;;;;;5043205;28;20565;-66
2022/10/01 05:29:19;;;;;;;1.20;0.60;;;11.10;97.00;;;;;;5027736;28;20474;-67
2022/10/01 05:31:47;;;;;;;1.10;0.50;;;11.20;96.90;;;;;;5038933;28;20433;-68
2022/10/01 05:34:14;;;;;;;0.65;0.47;;;11.20;97.00;;;;;;5031355;28;20437;-67
2022/10/01 05:36:40;;;;;;;1.05;0.60;;;11.20;97.00;;;;;;5049854;28;20429;-68
2022/10/01 05:39:09;;;;;;;0.80;0.50;;;11.20;96.90;;;;;;5033003;28;20461;-68
2022/10/01 05:41:35;;;;;;;0.75;0.50;;;11.20;96.40;;;;;;5041907;28;20425;-68
2022/10/01 05:44:02;;;;;;;0.80;0.60;;;11.20;96.40;;;;;;5031474;28;20495;-67
2022/10/01 05:46:31;;;;;;;1.50;0.70;;;11.20;96.50;;;;;;5028992;28;20423;-68
2022/10/01 05:48:58;;;;;;;0.80;0.60;;;11.20;96.80;;;;;;5030109;28;20467;-67
2022/10/01 05:51:25;;;;;;;0.85;0.57;;;11.20;96.80;;;;;;5033962;28;20436;-68
2022/10/01 05:53:53;;;;;;;0.80;0.50;;;11.20;96.80;;;;;;5026102;28;20415;-66
2022/10/01 05:56:23;;;;;;;0.80;0.50;;;11.20;96.50;;;;;;5027333;28;21092;-67
2022/10/01 05:58:49;;;;;;;0.80;0.50;;;11.20;96.40;;;;;;5020407;28;20837;-67
2022/10/01 06:01:16;;;;;;;0.80;0.50;;;11.20;96.40;;;;;;5031258;28;20433;-66
2022/10/01 06:03:43;;;;;;;1.20;0.50;;;11.30;96.40;;;;;;5036064;28;20439;-67
2022/10/01 06:06:10;;;;;;;0.70;0.40;;;11.30;96.40;;;;;;5036342;28;20423;-68
2022/10/01 06:08:37;;;;;;;0.88;0.50;;;11.20;96.70;;;;;;5033198;28;20472;-67
2022/10/01 06:11:04;;;;;;;0.60;0.40;;;11.30;96.60;;;;;;5028311;28;20440;-68
2022/10/01 06:13:32;;;;;;;0.60;0.40;;;11.30;96.30;;;;;;5026833;28;20462;-68
2022/10/01 06:15:59;;;;;;;0.63;0.40;;;11.40;96.40;;;;;;5038847;28;20504;-67
2022/10/01 06:18:26;;;;;;;1.20;0.33;;;11.40;96.00;;;;;;5027860;28;20415;-67
2022/10/01 06:20:52;;;;;;;0.60;0.30;;;11.40;96.10;;;;;;5026958;28;20423;-67
2022/10/01 06:23:19;;;;;;;0.60;0.40;;;11.50;96.00;;;;;;5031722;28;20438;-67
2022/10/01 06:25:46;;;;;;;0.90;0.40;;;11.50;96.00;;;;;;5032916;28;20440;-68
2022/10/01 06:28:14;;;;;;;0.82;0.40;;;11.50;96.00;;;;;;5027535;28;20898;-67
2022/10/01 06:30:42;;;;;;;0.70;0.40;;;11.50;95.90;;;;;;5029429;28;20414;-67
2022/10/01 06:33:11;;;;;;;0.60;0.30;;;11.60;96.00;;;;;;5030196;28;20424;-66
2022/10/01 06:35:41;;;;;;;0.80;0.40;;;11.60;96.40;;;;;;5040433;28;20419;-66
2022/10/01 06:38:09;;;;;;;0.60;0.30;;;11.70;96.10;;;;;;5027370;28;20913;-66
2022/10/01 06:40:36;;;;;;;0.60;0.30;;;11.70;95.70;;;;;;5029590;28;20469;-66
2022/10/01 06:43:06;;;;;;;0.60;0.30;;;11.80;95.70;;;;;;5038839;28;20437;-66
2022/10/01 06:45:37;;;;;;;0.70;0.40;;;11.80;95.90;;;;;;5027428;28;20493;-66
2022/10/01 06:48:05;;;;;;;0.60;0.40;;;11.80;96.00;;;;;;5033179;28;20437;-67
2022/10/01 06:50:33;;;;;;;0.60;0.40;;;11.80;96.00;;;;;;5027845;28;20426;-67
2022/10/01 06:53:01;;;;;;;1.10;0.40;;;11.70;96.40;;;;;;5027733;28;20438;-66
2022/10/01 06:55:30;;;;;;;1.60;0.30;;;11.80;96.50;;;;;;5035181;28;20425;-66
2022/10/01 06:57:58;;;;;;;0.60;0.40;;;11.80;96.30;;;;;;5031559;28;20418;-66
2022/10/01 07:00:26;;;;;;;1.00;0.40;;;11.90;96.30;;;;;;5027516;28;20419;-66
2022/10/01 07:02:54;;;;;;;0.90;0.50;;;11.90;96.80;;;;;;5027094;28;20426;-66
2022/10/01 07:05:23;;;;;;;1.30;0.80;;;11.90;96.00;;;;;;5026608;28;20493;-67
2022/10/01 07:07:50;;;;;;;1.50;0.60;;;11.90;96.20;;;;;;5034216;28;20437;-65
2022/10/01 07:10:19;;;;;;;1.10;0.40;;;11.90;96.50;;;;;;5032430;28;22316;-66
2022/10/01 07:12:48;;;;;;;0.80;0.50;;;12.00;96.40;;;;;;5039991;28;20433;-66
2022/10/01 07:15:16;;;;;;;1.40;0.50;;;12.00;96.50;;;;;;5024325;28;20430;-66
2022/10/01 07:17:44;;;;;;;0.80;0.50;;;12.00;96.40;;;;;;5033754;28;20421;-66
2022/10/01 07:20:13;;;;;;;0.80;0.65;;;12.00;96.50;;;;;;5029359;28;20437;-74
2022/10/01 07:22:41;;;;;;;1.67;0.88;;;12.10;96.60;;;;;;5036378;28;20424;-70
2022/10/01 07:25:09;;;;;;;1.30;0.57;;;12.10;96.70;;;;;;5028966;28;20443;-67
2022/10/01 07:27:36;;;;;;;0.90;0.60;;;12.10;96.70;;;;;;5033770;28;20848;-67
2022/10/01 07:30:03;;;;;;;0.90;0.60;;;12.20;96.40;;;;;;5036675;28;20423;-70
2022/10/01 07:32:30;;;;;;;1.42;0.60;;;12.30;96.40;;;;;;5026629;28;20427;-71
2022/10/01 07:34:57;;;;;;;0.90;0.50;;;12.30;96.00;;;;;;5025880;28;20435;-68
2022/10/01 07:37:25;;;;;;;0.80;0.65;;;12.40;95.90;;;;;;5041595;28;20458;-66
2022/10/01 07:39:53;;;;;;;1.50;0.90;;;12.40;95.70;;;;;;5027551;28;20819;-66
2022/10/01 07:42:20;;;;;;;0.70;0.40;;;12.50;95.30;;;;;;5031258;28;20433;-65
2022/10/01 07:44:47;;;;;;;1.00;0.60;;;12.60;95.30;;;;;;5030677;28;20426;-64
2022/10/01 07:47:14;;;;;;;1.77;0.70;;;12.60;95.20;;;;;;5025022;28;20435;-66
2022/10/01 07:49:41;;;;;;;0.93;0.82;;;12.60;95.00;;;;;;5034961;28;20508;-66
2022/10/01 07:52:08;;;;;;;1.10;0.70;;;12.70;94.60;;;;;;5044103;28;20900;-64
2022/10/01 07:54:34;;;;;;;1.83;0.90;;;12.70;94.80;;;;;;5035658;28;20418;-66
2022/10/01 07:57:02;;;;;;;0.90;0.70;;;12.80;94.90;;;;;;5027261;28;20981;-66
2022/10/01 07:59:30;;;;;;;1.60;0.65;;;12.80;94.90;;;;;;5038110;28;20424;-65
2022/10/01 08:01:57;;;;;;;1.30;0.60;;;12.90;94.80;;;;;;5030434;28;20498;-66
2022/10/01 08:07:08;;;;;;;1.20;0.60;;;13.00;94.60;;;;;;5018022;28;20390;-66
2022/10/01 08:09:36;;;;;;;0.90;0.60;;;13.10;93.90;;;;;;5030522;28;21056;-66
2022/10/01 08:12:04;;;;;;;1.10;0.60;;;13.10;94.10;;;;;;5033239;28;20435;-66
2022/10/01 08:14:31;;;;;;;1.88;0.60;;;13.10;94.30;;;;;;5039905;28;20424;-66
2022/10/01 08:16:58;;;;;;;0.80;0.50;;;13.20;94.20;;;;;;5030460;28;20771;-66
2022/10/01 08:19:25;;;;;;;1.10;0.60;;;13.30;93.60;;;;;;5030230;28;20415;-66
2022/10/01 08:21:51;;;;;;;0.90;0.60;;;13.30;93.60;;;;;;5030693;28;20426;-64
2022/10/01 08:24:18;;;;;;;1.00;0.60;;;13.30;93.80;;;;;;5034185;28;20429;-66
2022/10/01 08:26:45;;;;;;;0.80;0.50;;;13.30;93.50;;;;;;5039547;28;20512;-66
2022/10/01 08:29:13;;;;;;;1.10;0.65;;;13.30;93.60;;;;;;5044462;28;20844;-66
2022/10/01 08:31:40;;;;;;;1.02;0.60;;;13.40;93.20;;;;;;5032571;28;20429;-66
2022/10/01 08:34:07;;;;;;;1.00;0.60;;;13.50;92.90;;;;;;5039092;28;20842;-65
2022/10/01 08:36:34;;;;;;;2.05;0.65;;;13.50;93.20;;;;;;5050190;28;20413;-65
2022/10/01 08:39:01;;;;;;;1.00;0.50;;;13.50;92.70;;;;;;5042626;28;20948;-66
2022/10/01 08:41:39;;;;;;;1.30;0.70;;;13.50;93.00;;;;;;5046610;28;20833;-64
2022/10/01 08:44:11;;;;;;;1.80;0.73;;;13.50;93.40;;;;;;5034232;28;20988;-66
2022/10/01 08:46:40;;;;;;;0.70;0.57;;;13.50;93.20;;;;;;5037686;28;20423;-64
2022/10/01 08:49:15;;;;;;;1.83;0.70;;;13.60;93.00;;;;;;5043232;28;20477;-64
2022/10/01 08:51:48;;;;;;;1.63;0.60;;;13.70;92.90;;;;;;5030133;28;21146;-64
2022/10/01 08:54:33;;;;;;;1.75;0.60;;;13.80;93.00;;;;;;5043780;28;20420;-65
2022/10/01 08:57:03;;;;;;;1.42;0.60;;;13.90;91.80;;;;;;5033916;28;20431;-62
2022/10/01 08:59:39;;;;;;;1.10;0.70;;;14.10;91.60;;;;;;5035837;28;20427;-65
2022/10/01 09:02:20;;;;;;;1.50;0.73;;;14.30;91.30;;;;;;5038169;28;20468;-67
2022/10/01 09:04:47;;;;;;;1.50;0.80;;;14.40;91.40;;;;;;5046537;28;20959;-64
2022/10/01 09:07:29;;;;;;;2.45;0.80;;;14.50;90.10;;;;;;5035308;28;20513;-66
2022/10/01 09:10:03;;;;;;;2.00;0.90;;;14.60;90.40;;;;;;5049939;22;20448;-71
2022/10/01 09:12:41;;;;;;;1.40;0.80;;;14.60;90.50;;;;;;5031461;28;20431;-70
2022/10/01 09:15:20;;;;;;;1.47;0.90;;;14.60;90.40;;;;;;5025351;28;20413;-70
2022/10/01 09:18:01;;;;;;;1.80;0.90;;;14.60;90.80;;;;;;5030277;28;20798;-70
2022/10/01 09:20:35;;;;;;;2.15;1.10;;;14.70;91.30;;;;;;5035593;28;20433;-70
2022/10/01 09:23:17;;;;;;;3.00;1.20;;;14.70;92.00;;;;;;5046901;28;20425;-69
2022/10/01 09:25:49;;;;;;;2.90;1.10;;;14.60;92.40;;;;;;5021843;28;20423;-70
2022/10/01 09:28:18;;;;;;;3.25;1.40;;;14.50;93.10;;;;;;5033245;28;20431;-70
2022/10/01 09:30:53;;;;;;;2.30;1.50;;;14.40;93.70;;;;;;5038856;28;20424;-69
2022/10/01 09:33:23;;;;;;;3.47;1.40;;;14.30;94.00;;;;;;5021938;28;20445;-71
2022/10/01 09:35:55;;;;;;;2.58;1.20;;;14.40;94.50;;;;;;5025469;28;20514;-71
2022/10/01 09:38:28;;;;;;;3.80;1.38;;;14.40;93.00;;;;;;5039392;28;20913;-69
2022/10/01 09:40:56;;;;;;;1.90;1.10;;;14.50;92.90;;;;;;5026663;28;21287;-68
2022/10/01 09:43:24;;;;;;;1.80;1.10;;;14.60;92.60;;;;;;5029066;28;20799;-70
2022/10/01 09:45:51;;;;;;;2.25;1.30;;;14.70;92.50;;;;;;5028489;28;20415;-71
2022/10/01 09:48:29;;;;;;;1.80;1.23;;;14.90;92.80;;;;;;5033301;28;20408;-70
2022/10/01 09:50:59;;;;;;;1.92;1.23;;;15.30;90.60;;;;;;5042754;28;20419;-72
2022/10/01 09:53:33;;;;;;;3.05;1.50;;;15.70;90.20;;;;;;5039987;28;20446;-72
2022/10/01 09:56:04;;;;;;;2.20;1.50;;;16.20;88.70;;;;;;5027601;28;20443;-72
2022/10/01 09:58:34;;;;;;;2.40;1.60;;;16.50;86.10;;;;;;5037077;28;21111;-72
2022/10/01 10:01:01;;;;;;;2.38;1.40;;;16.70;83.30;;;;;;5044602;28;20419;-70
2022/10/01 10:03:31;;;;;;;3.22;1.70;;;16.50;83.10;;;;;;5030901;28;22080;-71
2022/10/01 10:06:00;;;;;;;3.23;1.80;;;16.50;83.10;;;;;;5034853;28;20492;-70
2022/10/01 10:08:30;;;;;;;3.33;1.70;;;16.50;82.60;;;;;;5019555;28;20438;-70
2022/10/01 10:10:59;;;;;;;2.67;2.00;;;16.70;80.30;;;;;;5018018;28;20422;-70
2022/10/01 10:13:33;;;;;;;2.13;1.80;;;16.80;81.50;;;;;;5022772;28;20516;-71
2022/10/01 10:16:09;;;;;;;4.23;1.70;;;17.20;80.20;;;;;;5038145;28;20429;-73
2022/10/01 10:18:39;;;;;;;3.13;1.80;;;17.50;79.00;;;;;;5043488;28;20427;-71
2022/10/01 10:21:13;;;;;;;3.08;1.90;;;17.80;76.50;;;;;;5028682;28;20439;-71
2022/10/01 10:23:47;;;;;;;3.45;1.60;;;17.90;75.70;;;;;;5015951;28;20436;-72
2022/10/01 10:26:19;;;;;;;5.65;1.73;;;18.10;74.20;;;;;;5018753;28;20861;-70
2022/10/01 10:28:46;;;;;;;4.03;1.83;;;18.30;73.90;;;;;;5024248;28;21114;-70
2022/10/01 10:31:15;;;;;;;3.33;1.85;;;18.50;74.00;;;;;;5027389;28;20481;-69
2022/10/01 10:33:49;;;;;;;3.83;1.70;;;18.50;72.60;;;;;;5026514;28;20431;-70
2022/10/01 10:36:18;;;;;;;5.45;2.17;;;18.20;71.70;;;;;;5026983;28;20462;-69
2022/10/01 10:38:48;;;;;;;4.35;2.10;;;18.00;71.70;;;;;;5026977;28;20439;-68
2022/10/01 10:41:18;;;;;;;4.22;2.20;;;17.70;74.10;;;;;;5030211;28;20939;-68
2022/10/01 10:43:49;;;;;;;3.40;2.20;;;17.60;73.60;;;;;;5038923;28;20992;-69
2022/10/01 10:46:22;;;;;;;3.40;1.83;;;17.40;73.80;;;;;;5038906;28;20437;-69
2022/10/01 10:48:57;;;;;;;3.78;2.20;;;17.20;73.10;;;;;;5038986;28;20421;-69
2022/10/01 10:51:26;;;;;;;3.40;2.00;;;17.10;74.20;;;;;;5039648;28;20481;-70
2022/10/01 10:53:53;;;;;;;5.50;2.10;;;17.00;73.20;;;;;;5025224;28;20454;-70
2022/10/01 10:56:23;;;;;;;5.22;2.17;;;16.90;73.60;;;;;;5024825;28;20446;-71
2022/10/01 10:58:52;;;;;;;3.80;2.10;;;16.90;74.30;;;;;;5019253;28;20917;-71
2022/10/01 11:01:26;;;;;;;3.55;1.98;;;17.10;73.50;;;;;;5015085;28;20431;-72
2022/10/01 11:03:57;;;;;;;4.07;2.05;;;17.50;70.30;;;;;;5020027;28;20415;-71
2022/10/01 11:06:24;;;;;;;5.53;2.00;;;17.80;68.00;;;;;;5018490;28;20425;-71
2022/10/01 11:11:46;;;;;;;3.97;1.80;;;18.00;68.20;;;;;;5139485;27;20378;-70
2022/10/01 11:14:29;;;;;;;3.20;1.77;;;18.90;65.70;;;;;;5150024;27;20405;-74
2022/10/01 11:17:34;;;;;;;4.33;1.93;;;19.40;63.10;;;;;;5167729;27;20413;-71
2022/10/01 11:20:14;;;;;;;4.65;1.80;;;19.60;62.60;;;;;;5133320;27;20401;-70
2022/10/01 11:22:56;;;;;;;4.68;1.75;;;19.90;60.20;;;;;;5139298;27;20417;-72
2022/10/01 11:25:33;;;;;;;4.60;2.00;;;19.90;60.10;;;;;;5147495;27;20443;-71
2022/10/01 11:28:11;;;;;;;4.00;2.30;;;20.10;60.60;;;;;;5139820;27;20441;-71
2022/10/01 11:30:43;;;;;;;3.35;2.00;;;20.10;62.10;;;;;;5143961;27;20429;-70
2022/10/01 11:33:18;;;;;;;4.17;1.80;;;19.80;61.90;;;;;;5138765;27;20408;-70
2022/10/01 11:35:57;;;;;;;4.00;1.92;;;19.70;63.10;;;;;;5126258;27;20415;-71
2022/10/01 11:38:47;;;;;;;4.50;2.20;;;19.60;63.90;;;;;;5145850;27;20500;-71
2022/10/01 11:41:30;;;;;;;4.43;2.38;;;19.30;65.50;;;;;;5138440;27;20506;-72
2022/10/01 11:44:02;;;;;;;5.50;2.50;;;19.10;70.10;;;;;;5124909;27;20464;-72
2022/10/01 11:46:44;;;;;;;4.57;1.92;;;18.90;69.20;;;;;;5136610;27;20412;-70
2022/10/01 11:49:46;;;;;;;4.80;2.40;;;18.60;68.90;;;;;;5156739;27;20431;-70
2022/10/01 11:52:20;;;;;;;5.57;2.53;;;18.20;72.80;;;;;;5162032;27;20707;-70
2022/10/01 11:54:56;;;;;;;3.97;1.80;;;17.40;77.20;;;;;;5141256;27;20484;-70
2022/10/01 12:00:12;;;;;;;5.07;2.30;;;15.70;84.60;;;;;;5130572;27;21023;-71
2022/10/01 12:02:48;;;;;;;4.43;3.15;;;15.20;90.20;;;;;;5143605;27;20420;-71
2022/10/01 12:05:19;;;;;;;3.70;2.90;;;15.30;92.50;;;;;;5127490;27;20411;-70
2022/10/01 12:07:49;;;;;;;4.47;3.10;;;15.60;92.10;;;;;;5134906;27;20430;-71
2022/10/01 12:10:28;;;;;;;5.53;3.20;;;16.00;92.00;;;;;;5142711;27;20430;-71
2022/10/01 12:12:59;;;;;;;3.53;2.85;;;16.20;90.30;;;;;;5135328;27;20487;-70
2022/10/01 12:15:32;;;;;;;5.90;3.83;;;16.30;90.20;;;;;;5126515;27;20416;-70
2022/10/01 12:18:04;;;;;;;5.60;3.40;;;16.40;90.70;;;;;;5137887;27;20421;-71
2022/10/01 12:20:35;;;;;;;5.10;3.70;;;16.30;86.70;;;;;;5145320;27;20493;-70
2022/10/01 12:23:05;;;;;;;5.28;3.30;;;16.00;87.60;;;;;;5127873;27;20432;-73
2022/10/01 12:25:38;;;;;;;5.45;3.30;;;15.60;87.60;;;;;;5132090;27;20419;-70
2022/10/01 12:28:11;;;;;;;6.80;3.60;;;15.20;90.50;;;;;;5117827;27;20415;-72
2022/10/01 12:30:45;;;;;;;5.10;3.30;;;15.00;91.30;;;;;;5124726;27;20924;-70
2022/10/01 12:33:39;;;;;;;5.10;3.60;;;14.80;90.60;;;;;;5113905;27;21199;-70
2022/10/01 12:36:17;;;;;;;7.35;4.93;;;14.60;91.00;;;;;;5119625;27;20922;-70
2022/10/01 12:38:57;;;;;;;4.25;2.72;;;14.40;91.70;;;;;;5126704;27;20894;-70
2022/10/01 12:41:37;;;;;;;3.40;2.40;;;14.10;91.90;;;;;;5132509;27;20418;-70
2022/10/01 12:44:24;;;;;;;3.87;2.50;;;13.90;92.30;;;;;;5131897;27;20458;-70
2022/10/01 12:47:05;;;;;;;4.63;3.10;;;13.70;92.00;;;;;;5122633;27;20424;-71
2022/10/01 12:49:37;;;;;;;4.13;2.47;;;13.60;92.40;;;;;;5122810;27;20487;-71
2022/10/01 12:52:11;;;;;;;4.20;2.30;;;13.50;92.70;;;;;;5129920;27;20414;-71
2022/10/01 12:54:57;;;;;;;4.72;2.60;;;13.50;93.60;;;;;;5118582;27;20402;-71
2022/10/01 12:57:38;;;;;;;4.45;2.92;;;13.70;94.20;;;;;;5132597;27;20442;-72
2022/10/01 13:00:10;;;;;;;5.13;2.70;;;14.10;94.90;;;;;;5134576;27;20410;-70
2022/10/01 13:03:11;;;;;;;3.83;2.67;;;14.90;95.00;;;;;;5125121;27;20455;-70
2022/10/01 13:05:48;;;;;;;3.95;2.90;;;15.40;93.40;;;;;;5108487;27;20507;-70
2022/10/01 13:08:37;;;;;;;6.30;3.70;;;16.10;91.50;;;;;;5126995;27;20496;-71
2022/10/01 13:11:09;;;;;;;3.20;2.60;;;16.70;90.30;;;;;;5133790;27;20487;-70
2022/10/01 13:13:37;;;;;;;4.70;2.30;;;17.00;85.60;;;;;;5134144;27;20515;-70
2022/10/01 13:16:10;;;;;;;3.55;2.45;;;17.20;86.10;;;;;;5132789;27;20978;-71
2022/10/01 13:18:50;;;;;;;3.40;2.20;;;17.10;84.40;;;;;;5126853;27;20439;-70